sensor_id;sensor_type;location;lat;lon;timestamp;P1;durP1;ratioP1;P2;durP2;ratioP2
57846;SDS011;43675;50.030;21.952;2022-12-29T00:02:04;32.38;;;29.52;;
57846;SDS011;43675;50.030;21.952;2022-12-29T00:04:30;32.42;;;29.70;;
57846;SDS011;43675;50.030;21.952;2022-12-29T00:06:56;31.97;;;29.32;;
57846;SDS011;43675;50.030;21.952;2022-12-29T00:09:22;32.17;;;29.12;;
57846;SDS011;43675;50.030;21.952;2022-12-29T00:11:48;32.03;;;29.15;;
57846;SDS011;43675;50.030;21.952;2022-12-29T00:14:14;33.05;;;30.05;;
57846;SDS011;43675;50.030;21.952;2022-12-29T00:16:41;32.98;;;30.05;;
57846;SDS011;43675;50.030;21.952;2022-12-29T00:19:09;32.08;;;29.10;;
57846;SDS011;43675;50.030;21.952;2022-12-29T00:21:37;33.55;;;30.75;;
57846;SDS011;43675;50.030;21.952;2022-12-29T00:24:04;33.02;;;30.27;;
57846;SDS011;43675;50.030;21.952;2022-12-29T00:26:30;33.58;;;30.68;;
57846;SDS011;43675;50.030;21.952;2022-12-29T00:28:56;32.88;;;29.98;;
57846;SDS011;43675;50.030;21.952;2022-12-29T00:31:22;31.40;;;28.90;;
57846;SDS011;43675;50.030;21.952;2022-12-29T00:33:47;31.57;;;29.00;;
57846;SDS011;43675;50.030;21.952;2022-12-29T00:38:55;31.05;;;28.42;;
57846;SDS011;43675;50.030;21.952;2022-12-29T00:41:24;31.25;;;28.62;;
57846;SDS011;43675;50.030;21.952;2022-12-29T00:43:50;29.82;;;27.22;;
57846;SDS011;43675;50.030;21.952;2022-12-29T00:46:16;29.72;;;27.00;;
57846;SDS011;43675;50.030;21.952;2022-12-29T00:48:42;29.92;;;27.50;;
57846;SDS011;43675;50.030;21.952;2022-12-29T00:51:08;30.48;;;27.93;;
57846;SDS011;43675;50.030;21.952;2022-12-29T00:53:33;31.23;;;28.57;;
57846;SDS011;43675;50.030;21.952;2022-12-29T00:56:00;32.73;;;29.67;;
57846;SDS011;43675;50.030;21.952;2022-12-29T00:58:27;31.20;;;28.70;;
57846;SDS011;43675;50.030;21.952;2022-12-29T01:01:00;30.43;;;27.70;;
57846;SDS011;43675;50.030;21.952;2022-12-29T01:03:31;79.22;;;45.38;;
57846;SDS011;43675;50.030;21.952;2022-12-29T01:06:03;30.77;;;27.95;;
57846;SDS011;43675;50.030;21.952;2022-12-29T01:08:30;28.25;;;25.82;;
57846;SDS011;43675;50.030;21.952;2022-12-29T01:11:02;28.17;;;25.68;;
57846;SDS011;43675;50.030;21.952;2022-12-29T01:13:25;27.65;;;25.45;;
57846;SDS011;43675;50.030;21.952;2022-12-29T01:15:51;26.75;;;24.23;;
57846;SDS011;43675;50.030;21.952;2022-12-29T01:18:18;26.68;;;24.23;;
57846;SDS011;43675;50.030;21.952;2022-12-29T01:20:45;26.40;;;24.20;;
57846;SDS011;43675;50.030;21.952;2022-12-29T01:23:11;26.30;;;24.10;;
57846;SDS011;43675;50.030;21.952;2022-12-29T01:25:37;27.20;;;25.05;;
57846;SDS011;43675;50.030;21.952;2022-12-29T01:28:03;26.33;;;24.05;;
57846;SDS011;43675;50.030;21.952;2022-12-29T01:30:29;26.50;;;24.25;;
57846;SDS011;43675;50.030;21.952;2022-12-29T01:32:55;27.27;;;25.00;;
57846;SDS011;43675;50.030;21.952;2022-12-29T01:35:21;27.02;;;24.75;;
57846;SDS011;43675;50.030;21.952;2022-12-29T01:37:47;27.00;;;24.55;;
57846;SDS011;43675;50.030;21.952;2022-12-29T01:40:13;27.07;;;24.67;;
57846;SDS011;43675;50.030;21.952;2022-12-29T01:42:39;26.87;;;24.60;;
57846;SDS011;43675;50.030;21.952;2022-12-29T01:45:08;27.70;;;25.32;;
57846;SDS011;43675;50.030;21.952;2022-12-29T01:47:48;26.93;;;24.67;;
57846;SDS011;43675;50.030;21.952;2022-12-29T01:50:16;28.07;;;25.68;;
57846;SDS011;43675;50.030;21.952;2022-12-29T01:52:50;27.10;;;24.77;;
57846;SDS011;43675;50.030;21.952;2022-12-29T01:55:23;27.00;;;24.67;;
57846;SDS011;43675;50.030;21.952;2022-12-29T01:57:50;27.42;;;24.90;;
57846;SDS011;43675;50.030;21.952;2022-12-29T02:00:19;28.15;;;25.62;;
57846;SDS011;43675;50.030;21.952;2022-12-29T02:02:46;27.50;;;25.20;;
57846;SDS011;43675;50.030;21.952;2022-12-29T02:07:56;28.25;;;25.90;;
57846;SDS011;43675;50.030;21.952;2022-12-29T02:10:23;27.42;;;25.30;;
57846;SDS011;43675;50.030;21.952;2022-12-29T02:12:51;28.02;;;25.55;;
57846;SDS011;43675;50.030;21.952;2022-12-29T02:15:18;27.58;;;25.25;;
57846;SDS011;43675;50.030;21.952;2022-12-29T02:23:24;25.35;;;23.25;;
57846;SDS011;43675;50.030;21.952;2022-12-29T02:36:25;24.90;;;22.67;;
57846;SDS011;43675;50.030;21.952;2022-12-29T02:39:05;24.85;;;22.75;;
57846;SDS011;43675;50.030;21.952;2022-12-29T02:41:37;25.10;;;23.00;;
57846;SDS011;43675;50.030;21.952;2022-12-29T02:46:48;25.12;;;22.80;;
57846;SDS011;43675;50.030;21.952;2022-12-29T02:49:25;24.50;;;22.25;;
57846;SDS011;43675;50.030;21.952;2022-12-29T02:52:01;24.35;;;22.35;;
57846;SDS011;43675;50.030;21.952;2022-12-29T02:54:39;24.67;;;22.52;;
57846;SDS011;43675;50.030;21.952;2022-12-29T02:59:55;22.90;;;21.00;;
57846;SDS011;43675;50.030;21.952;2022-12-29T03:02:27;22.80;;;20.95;;
57846;SDS011;43675;50.030;21.952;2022-12-29T03:05:00;22.95;;;21.05;;
57846;SDS011;43675;50.030;21.952;2022-12-29T03:13:23;22.58;;;20.82;;
57846;SDS011;43675;50.030;21.952;2022-12-29T03:18:56;23.27;;;21.40;;
57846;SDS011;43675;50.030;21.952;2022-12-29T03:21:43;22.50;;;20.70;;
57846;SDS011;43675;50.030;21.952;2022-12-29T03:26:38;23.30;;;21.15;;
57846;SDS011;43675;50.030;21.952;2022-12-29T03:29:05;22.70;;;20.77;;
57846;SDS011;43675;50.030;21.952;2022-12-29T03:31:34;22.48;;;20.48;;
57846;SDS011;43675;50.030;21.952;2022-12-29T03:34:02;22.62;;;20.68;;
57846;SDS011;43675;50.030;21.952;2022-12-29T03:39:18;21.42;;;19.62;;
57846;SDS011;43675;50.030;21.952;2022-12-29T03:41:47;21.70;;;19.77;;
57846;SDS011;43675;50.030;21.952;2022-12-29T03:44:15;21.02;;;19.25;;
57846;SDS011;43675;50.030;21.952;2022-12-29T03:46:41;21.60;;;19.62;;
57846;SDS011;43675;50.030;21.952;2022-12-29T03:49:07;21.93;;;20.12;;
57846;SDS011;43675;50.030;21.952;2022-12-29T03:51:33;21.60;;;19.75;;
57846;SDS011;43675;50.030;21.952;2022-12-29T03:53:59;21.20;;;19.48;;
57846;SDS011;43675;50.030;21.952;2022-12-29T03:56:25;21.60;;;19.75;;
57846;SDS011;43675;50.030;21.952;2022-12-29T03:58:51;21.80;;;20.02;;
57846;SDS011;43675;50.030;21.952;2022-12-29T04:01:16;21.40;;;19.57;;
57846;SDS011;43675;50.030;21.952;2022-12-29T04:03:42;21.62;;;19.95;;
57846;SDS011;43675;50.030;21.952;2022-12-29T04:06:08;21.50;;;19.75;;
57846;SDS011;43675;50.030;21.952;2022-12-29T04:08:34;21.25;;;19.45;;
57846;SDS011;43675;50.030;21.952;2022-12-29T04:11:00;21.85;;;19.95;;
57846;SDS011;43675;50.030;21.952;2022-12-29T04:13:26;21.33;;;19.52;;
57846;SDS011;43675;50.030;21.952;2022-12-29T04:15:52;20.60;;;19.05;;
57846;SDS011;43675;50.030;21.952;2022-12-29T04:18:18;20.85;;;19.25;;
57846;SDS011;43675;50.030;21.952;2022-12-29T04:20:44;21.23;;;19.42;;
57846;SDS011;43675;50.030;21.952;2022-12-29T04:23:10;20.15;;;18.55;;
57846;SDS011;43675;50.030;21.952;2022-12-29T04:25:36;20.37;;;18.67;;
57846;SDS011;43675;50.030;21.952;2022-12-29T04:28:02;20.10;;;18.50;;
57846;SDS011;43675;50.030;21.952;2022-12-29T04:30:28;20.48;;;18.77;;
57846;SDS011;43675;50.030;21.952;2022-12-29T04:32:54;21.27;;;19.57;;
57846;SDS011;43675;50.030;21.952;2022-12-29T04:35:20;22.13;;;20.23;;
57846;SDS011;43675;50.030;21.952;2022-12-29T04:37:46;21.37;;;19.35;;
57846;SDS011;43675;50.030;21.952;2022-12-29T04:40:12;20.90;;;19.15;;
57846;SDS011;43675;50.030;21.952;2022-12-29T04:42:38;22.10;;;19.82;;
57846;SDS011;43675;50.030;21.952;2022-12-29T04:45:04;21.52;;;19.62;;
57846;SDS011;43675;50.030;21.952;2022-12-29T04:47:31;19.77;;;17.67;;
57846;SDS011;43675;50.030;21.952;2022-12-29T04:49:57;19.52;;;17.60;;
57846;SDS011;43675;50.030;21.952;2022-12-29T04:52:23;18.92;;;17.23;;
57846;SDS011;43675;50.030;21.952;2022-12-29T04:54:48;19.75;;;17.90;;
57846;SDS011;43675;50.030;21.952;2022-12-29T04:57:14;18.82;;;17.15;;
57846;SDS011;43675;50.030;21.952;2022-12-29T04:59:40;19.00;;;17.50;;
57846;SDS011;43675;50.030;21.952;2022-12-29T05:02:06;20.12;;;18.25;;
57846;SDS011;43675;50.030;21.952;2022-12-29T05:04:32;19.70;;;18.10;;
57846;SDS011;43675;50.030;21.952;2022-12-29T05:06:58;18.77;;;17.32;;
57846;SDS011;43675;50.030;21.952;2022-12-29T05:09:24;19.35;;;17.73;;
57846;SDS011;43675;50.030;21.952;2022-12-29T05:11:50;19.45;;;17.75;;
57846;SDS011;43675;50.030;21.952;2022-12-29T05:14:15;18.98;;;17.20;;
57846;SDS011;43675;50.030;21.952;2022-12-29T05:16:41;19.52;;;16.73;;
57846;SDS011;43675;50.030;21.952;2022-12-29T05:19:07;19.20;;;17.20;;
57846;SDS011;43675;50.030;21.952;2022-12-29T05:21:33;19.15;;;17.55;;
57846;SDS011;43675;50.030;21.952;2022-12-29T05:23:59;18.67;;;17.02;;
57846;SDS011;43675;50.030;21.952;2022-12-29T05:26:25;18.87;;;17.17;;
57846;SDS011;43675;50.030;21.952;2022-12-29T05:28:51;19.50;;;17.90;;
57846;SDS011;43675;50.030;21.952;2022-12-29T05:31:17;19.48;;;17.87;;
57846;SDS011;43675;50.030;21.952;2022-12-29T05:33:42;18.35;;;16.85;;
57846;SDS011;43675;50.030;21.952;2022-12-29T05:36:09;18.25;;;16.85;;
57846;SDS011;43675;50.030;21.952;2022-12-29T05:38:36;19.77;;;18.27;;
57846;SDS011;43675;50.030;21.952;2022-12-29T05:41:02;19.50;;;17.90;;
57846;SDS011;43675;50.030;21.952;2022-12-29T05:43:27;18.45;;;16.95;;
57846;SDS011;43675;50.030;21.952;2022-12-29T05:45:53;18.65;;;17.32;;
57846;SDS011;43675;50.030;21.952;2022-12-29T05:48:21;18.32;;;16.93;;
57846;SDS011;43675;50.030;21.952;2022-12-29T05:50:47;19.55;;;17.95;;
57846;SDS011;43675;50.030;21.952;2022-12-29T05:53:13;19.92;;;18.52;;
57846;SDS011;43675;50.030;21.952;2022-12-29T05:55:40;20.17;;;18.60;;
57846;SDS011;43675;50.030;21.952;2022-12-29T05:58:05;20.60;;;19.00;;
57846;SDS011;43675;50.030;21.952;2022-12-29T06:00:31;20.40;;;18.87;;
57846;SDS011;43675;50.030;21.952;2022-12-29T06:02:58;20.00;;;18.40;;
57846;SDS011;43675;50.030;21.952;2022-12-29T06:05:24;19.75;;;18.15;;
57846;SDS011;43675;50.030;21.952;2022-12-29T06:07:49;19.75;;;17.90;;
57846;SDS011;43675;50.030;21.952;2022-12-29T06:10:15;19.25;;;17.65;;
57846;SDS011;43675;50.030;21.952;2022-12-29T06:12:41;19.52;;;18.00;;
57846;SDS011;43675;50.030;21.952;2022-12-29T06:15:07;20.35;;;18.50;;
57846;SDS011;43675;50.030;21.952;2022-12-29T06:17:34;19.62;;;17.98;;
57846;SDS011;43675;50.030;21.952;2022-12-29T06:20:00;19.00;;;17.50;;
57846;SDS011;43675;50.030;21.952;2022-12-29T06:22:27;19.57;;;17.70;;
57846;SDS011;43675;50.030;21.952;2022-12-29T06:24:52;20.65;;;18.95;;
57846;SDS011;43675;50.030;21.952;2022-12-29T06:27:18;21.70;;;19.90;;
57846;SDS011;43675;50.030;21.952;2022-12-29T06:29:44;19.67;;;18.17;;
57846;SDS011;43675;50.030;21.952;2022-12-29T06:32:10;20.72;;;18.80;;
57846;SDS011;43675;50.030;21.952;2022-12-29T06:34:36;20.52;;;18.92;;
57846;SDS011;43675;50.030;21.952;2022-12-29T06:37:02;21.12;;;19.32;;
57846;SDS011;43675;50.030;21.952;2022-12-29T06:39:28;20.43;;;18.55;;
57846;SDS011;43675;50.030;21.952;2022-12-29T06:41:54;21.17;;;19.30;;
57846;SDS011;43675;50.030;21.952;2022-12-29T06:44:20;19.90;;;18.40;;
57846;SDS011;43675;50.030;21.952;2022-12-29T06:46:47;19.48;;;17.90;;
57846;SDS011;43675;50.030;21.952;2022-12-29T06:49:13;19.80;;;18.15;;
57846;SDS011;43675;50.030;21.952;2022-12-29T06:51:39;19.77;;;17.95;;
57846;SDS011;43675;50.030;21.952;2022-12-29T06:54:05;19.32;;;17.65;;
57846;SDS011;43675;50.030;21.952;2022-12-29T06:56:31;19.42;;;17.62;;
57846;SDS011;43675;50.030;21.952;2022-12-29T06:58:57;18.25;;;16.75;;
57846;SDS011;43675;50.030;21.952;2022-12-29T07:01:23;19.73;;;17.82;;
57846;SDS011;43675;50.030;21.952;2022-12-29T07:03:49;19.15;;;17.55;;
57846;SDS011;43675;50.030;21.952;2022-12-29T07:06:15;19.77;;;17.90;;
57846;SDS011;43675;50.030;21.952;2022-12-29T07:08:41;19.75;;;17.87;;
57846;SDS011;43675;50.030;21.952;2022-12-29T07:11:07;18.42;;;16.77;;
57846;SDS011;43675;50.030;21.952;2022-12-29T07:13:32;19.15;;;17.32;;
57846;SDS011;43675;50.030;21.952;2022-12-29T07:15:58;18.32;;;16.73;;
57846;SDS011;43675;50.030;21.952;2022-12-29T07:18:24;18.92;;;17.12;;
57846;SDS011;43675;50.030;21.952;2022-12-29T07:20:50;18.45;;;16.85;;
57846;SDS011;43675;50.030;21.952;2022-12-29T07:23:16;18.82;;;17.10;;
57846;SDS011;43675;50.030;21.952;2022-12-29T07:25:42;19.57;;;17.77;;
57846;SDS011;43675;50.030;21.952;2022-12-29T07:28:08;19.65;;;18.05;;
57846;SDS011;43675;50.030;21.952;2022-12-29T07:30:36;19.92;;;17.90;;
57846;SDS011;43675;50.030;21.952;2022-12-29T07:33:02;19.60;;;17.65;;
57846;SDS011;43675;50.030;21.952;2022-12-29T07:35:28;19.27;;;17.48;;
57846;SDS011;43675;50.030;21.952;2022-12-29T07:37:54;19.05;;;17.32;;
57846;SDS011;43675;50.030;21.952;2022-12-29T07:40:20;18.57;;;16.67;;
57846;SDS011;43675;50.030;21.952;2022-12-29T07:42:46;18.40;;;16.50;;
57846;SDS011;43675;50.030;21.952;2022-12-29T07:45:12;18.37;;;16.67;;
57846;SDS011;43675;50.030;21.952;2022-12-29T07:47:38;19.55;;;17.65;;
57846;SDS011;43675;50.030;21.952;2022-12-29T07:50:04;19.77;;;18.02;;
57846;SDS011;43675;50.030;21.952;2022-12-29T07:52:31;19.65;;;17.82;;
57846;SDS011;43675;50.030;21.952;2022-12-29T07:54:57;20.77;;;18.77;;
57846;SDS011;43675;50.030;21.952;2022-12-29T07:57:22;19.65;;;17.85;;
57846;SDS011;43675;50.030;21.952;2022-12-29T07:59:48;19.98;;;18.25;;
57846;SDS011;43675;50.030;21.952;2022-12-29T08:02:14;19.95;;;18.10;;
57846;SDS011;43675;50.030;21.952;2022-12-29T08:04:40;19.17;;;17.37;;
57846;SDS011;43675;50.030;21.952;2022-12-29T08:07:06;19.62;;;17.92;;
57846;SDS011;43675;50.030;21.952;2022-12-29T08:09:32;19.48;;;17.77;;
57846;SDS011;43675;50.030;21.952;2022-12-29T08:11:58;24.30;;;21.93;;
57846;SDS011;43675;50.030;21.952;2022-12-29T08:14:24;20.10;;;18.23;;
57846;SDS011;43675;50.030;21.952;2022-12-29T08:16:50;18.82;;;17.32;;
57846;SDS011;43675;50.030;21.952;2022-12-29T08:19:16;19.57;;;17.95;;
57846;SDS011;43675;50.030;21.952;2022-12-29T08:21:41;20.55;;;18.65;;
57846;SDS011;43675;50.030;21.952;2022-12-29T08:24:07;20.82;;;18.82;;
57846;SDS011;43675;50.030;21.952;2022-12-29T08:26:33;20.02;;;18.23;;
57846;SDS011;43675;50.030;21.952;2022-12-29T08:28:59;20.00;;;18.10;;
57846;SDS011;43675;50.030;21.952;2022-12-29T08:31:25;20.25;;;18.30;;
57846;SDS011;43675;50.030;21.952;2022-12-29T08:33:51;19.32;;;17.40;;
57846;SDS011;43675;50.030;21.952;2022-12-29T08:36:17;18.87;;;17.27;;
57846;SDS011;43675;50.030;21.952;2022-12-29T08:38:43;19.82;;;18.12;;
57846;SDS011;43675;50.030;21.952;2022-12-29T08:41:09;22.02;;;19.65;;
57846;SDS011;43675;50.030;21.952;2022-12-29T08:43:35;20.97;;;18.98;;
57846;SDS011;43675;50.030;21.952;2022-12-29T08:46:01;20.85;;;18.85;;
57846;SDS011;43675;50.030;21.952;2022-12-29T08:48:27;19.50;;;17.70;;
57846;SDS011;43675;50.030;21.952;2022-12-29T08:50:53;20.80;;;18.55;;
57846;SDS011;43675;50.030;21.952;2022-12-29T08:53:19;19.92;;;18.12;;
57846;SDS011;43675;50.030;21.952;2022-12-29T08:55:45;19.80;;;17.80;;
57846;SDS011;43675;50.030;21.952;2022-12-29T08:58:12;19.98;;;18.07;;
57846;SDS011;43675;50.030;21.952;2022-12-29T09:02:58;86.20;;;36.17;;
57846;SDS011;43675;50.030;21.952;2022-12-29T09:05:24;18.95;;;17.17;;
57846;SDS011;43675;50.030;21.952;2022-12-29T09:07:50;18.82;;;17.10;;
57846;SDS011;43675;50.030;21.952;2022-12-29T09:10:16;19.00;;;17.20;;
57846;SDS011;43675;50.030;21.952;2022-12-29T09:12:42;19.12;;;17.42;;
57846;SDS011;43675;50.030;21.952;2022-12-29T09:15:08;18.62;;;16.82;;
57846;SDS011;43675;50.030;21.952;2022-12-29T09:17:34;19.25;;;17.55;;
57846;SDS011;43675;50.030;21.952;2022-12-29T09:20:00;20.20;;;18.45;;
57846;SDS011;43675;50.030;21.952;2022-12-29T09:22:26;20.77;;;18.07;;
57846;SDS011;43675;50.030;21.952;2022-12-29T09:24:55;21.62;;;19.17;;
57846;SDS011;43675;50.030;21.952;2022-12-29T09:27:21;19.60;;;17.45;;
57846;SDS011;43675;50.030;21.952;2022-12-29T09:29:47;19.98;;;18.25;;
57846;SDS011;43675;50.030;21.952;2022-12-29T09:32:13;19.85;;;17.85;;
57846;SDS011;43675;50.030;21.952;2022-12-29T09:34:39;19.42;;;17.52;;
57846;SDS011;43675;50.030;21.952;2022-12-29T09:37:05;20.25;;;18.25;;
57846;SDS011;43675;50.030;21.952;2022-12-29T09:39:30;20.43;;;18.60;;
57846;SDS011;43675;50.030;21.952;2022-12-29T09:42:01;19.82;;;18.07;;
57846;SDS011;43675;50.030;21.952;2022-12-29T09:47:15;18.82;;;17.07;;
57846;SDS011;43675;50.030;21.952;2022-12-29T09:52:14;19.30;;;17.48;;
57846;SDS011;43675;50.030;21.952;2022-12-29T09:54:46;22.98;;;19.35;;
57846;SDS011;43675;50.030;21.952;2022-12-29T09:57:29;20.88;;;18.73;;
57846;SDS011;43675;50.030;21.952;2022-12-29T09:59:59;20.20;;;18.20;;
57846;SDS011;43675;50.030;21.952;2022-12-29T10:02:34;21.50;;;19.42;;
57846;SDS011;43675;50.030;21.952;2022-12-29T10:05:20;21.73;;;19.67;;
57846;SDS011;43675;50.030;21.952;2022-12-29T10:10:35;22.27;;;19.00;;
57846;SDS011;43675;50.030;21.952;2022-12-29T10:13:13;32.95;;;24.63;;
57846;SDS011;43675;50.030;21.952;2022-12-29T10:16:02;20.75;;;18.70;;
57846;SDS011;43675;50.030;21.952;2022-12-29T10:21:21;20.32;;;18.52;;
57846;SDS011;43675;50.030;21.952;2022-12-29T10:26:15;21.33;;;19.25;;
57846;SDS011;43675;50.030;21.952;2022-12-29T10:31:17;20.62;;;18.73;;
57846;SDS011;43675;50.030;21.952;2022-12-29T10:33:56;21.42;;;19.32;;
57846;SDS011;43675;50.030;21.952;2022-12-29T10:41:38;20.97;;;19.02;;
57846;SDS011;43675;50.030;21.952;2022-12-29T10:44:08;20.75;;;18.75;;
57846;SDS011;43675;50.030;21.952;2022-12-29T10:46:36;20.92;;;18.95;;
57846;SDS011;43675;50.030;21.952;2022-12-29T10:49:04;22.32;;;20.17;;
57846;SDS011;43675;50.030;21.952;2022-12-29T10:51:36;21.85;;;19.75;;
57846;SDS011;43675;50.030;21.952;2022-12-29T10:54:05;21.95;;;19.92;;
57846;SDS011;43675;50.030;21.952;2022-12-29T10:59:14;20.70;;;18.70;;
57846;SDS011;43675;50.030;21.952;2022-12-29T11:01:39;20.52;;;18.73;;
57846;SDS011;43675;50.030;21.952;2022-12-29T11:06:58;20.35;;;18.52;;
57846;SDS011;43675;50.030;21.952;2022-12-29T11:09:29;21.02;;;19.00;;
57846;SDS011;43675;50.030;21.952;2022-12-29T11:11:57;20.50;;;18.40;;
57846;SDS011;43675;50.030;21.952;2022-12-29T11:14:28;20.57;;;18.67;;
57846;SDS011;43675;50.030;21.952;2022-12-29T11:16:59;20.48;;;18.67;;
57846;SDS011;43675;50.030;21.952;2022-12-29T11:19:28;21.73;;;19.55;;
57846;SDS011;43675;50.030;21.952;2022-12-29T11:21:55;20.57;;;18.65;;
57846;SDS011;43675;50.030;21.952;2022-12-29T11:26:53;21.30;;;19.30;;
57846;SDS011;43675;50.030;21.952;2022-12-29T11:29:22;21.02;;;18.92;;
57846;SDS011;43675;50.030;21.952;2022-12-29T11:31:56;21.42;;;19.27;;
57846;SDS011;43675;50.030;21.952;2022-12-29T11:36:54;22.27;;;20.20;;
57846;SDS011;43675;50.030;21.952;2022-12-29T11:39:33;21.35;;;19.30;;
57846;SDS011;43675;50.030;21.952;2022-12-29T11:42:01;21.90;;;19.90;;
57846;SDS011;43675;50.030;21.952;2022-12-29T11:44:28;21.05;;;18.92;;
57846;SDS011;43675;50.030;21.952;2022-12-29T11:46:57;22.30;;;20.23;;
57846;SDS011;43675;50.030;21.952;2022-12-29T11:49:24;21.05;;;19.12;;
57846;SDS011;43675;50.030;21.952;2022-12-29T11:51:51;21.42;;;19.42;;
57846;SDS011;43675;50.030;21.952;2022-12-29T11:54:40;22.35;;;19.95;;
57846;SDS011;43675;50.030;21.952;2022-12-29T11:56:54;21.77;;;19.70;;
57846;SDS011;43675;50.030;21.952;2022-12-29T12:02:22;22.62;;;20.43;;
57846;SDS011;43675;50.030;21.952;2022-12-29T12:04:53;21.60;;;19.50;;
57846;SDS011;43675;50.030;21.952;2022-12-29T12:07:20;24.07;;;20.62;;
57846;SDS011;43675;50.030;21.952;2022-12-29T12:12:32;22.73;;;20.43;;
57846;SDS011;43675;50.030;21.952;2022-12-29T12:15:03;21.40;;;19.30;;
57846;SDS011;43675;50.030;21.952;2022-12-29T12:17:47;26.42;;;23.20;;
57846;SDS011;43675;50.030;21.952;2022-12-29T12:28:54;21.05;;;18.98;;
57846;SDS011;43675;50.030;21.952;2022-12-29T12:34:10;21.87;;;19.57;;
57846;SDS011;43675;50.030;21.952;2022-12-29T12:39:26;22.37;;;20.08;;
57846;SDS011;43675;50.030;21.952;2022-12-29T12:42:17;22.60;;;20.15;;
57846;SDS011;43675;50.030;21.952;2022-12-29T12:47:27;26.62;;;23.70;;
57846;SDS011;43675;50.030;21.952;2022-12-29T12:55:54;45.78;;;31.93;;
57846;SDS011;43675;50.030;21.952;2022-12-29T13:04:12;41.63;;;30.68;;
57846;SDS011;43675;50.030;21.952;2022-12-29T13:06:56;85.55;;;58.78;;
57846;SDS011;43675;50.030;21.952;2022-12-29T13:17:42;111.30;;;69.80;;
57846;SDS011;43675;50.030;21.952;2022-12-29T13:20:55;55.08;;;43.70;;
57846;SDS011;43675;50.030;21.952;2022-12-29T13:23:10;34.70;;;29.72;;
57846;SDS011;43675;50.030;21.952;2022-12-29T13:28:59;53.78;;;40.78;;
57846;SDS011;43675;50.030;21.952;2022-12-29T13:31:41;26.87;;;23.25;;
57846;SDS011;43675;50.030;21.952;2022-12-29T13:36:52;59.30;;;36.23;;
57846;SDS011;43675;50.030;21.952;2022-12-29T13:39:26;51.15;;;31.95;;
57846;SDS011;43675;50.030;21.952;2022-12-29T13:41:54;34.67;;;24.92;;
57846;SDS011;43675;50.030;21.952;2022-12-29T13:44:26;57.15;;;33.00;;
57846;SDS011;43675;50.030;21.952;2022-12-29T13:46:54;54.20;;;31.37;;
57846;SDS011;43675;50.030;21.952;2022-12-29T13:49:23;43.45;;;28.65;;
57846;SDS011;43675;50.030;21.952;2022-12-29T13:51:53;56.02;;;35.00;;
57846;SDS011;43675;50.030;21.952;2022-12-29T13:54:29;52.93;;;33.48;;
57846;SDS011;43675;50.030;21.952;2022-12-29T13:57:01;54.60;;;33.08;;
57846;SDS011;43675;50.030;21.952;2022-12-29T14:05:27;28.45;;;25.55;;
57846;SDS011;43675;50.030;21.952;2022-12-29T14:07:37;30.27;;;27.13;;
57846;SDS011;43675;50.030;21.952;2022-12-29T14:10:18;28.30;;;25.20;;
57846;SDS011;43675;50.030;21.952;2022-12-29T14:12:35;36.35;;;30.70;;
57846;SDS011;43675;50.030;21.952;2022-12-29T14:17:39;91.65;;;41.98;;
57846;SDS011;43675;50.030;21.952;2022-12-29T14:20:16;70.35;;;36.28;;
57846;SDS011;43675;50.030;21.952;2022-12-29T14:23:01;88.00;;;43.02;;
57846;SDS011;43675;50.030;21.952;2022-12-29T14:28:26;79.53;;;40.43;;
57846;SDS011;43675;50.030;21.952;2022-12-29T14:30:57;78.30;;;39.20;;
57846;SDS011;43675;50.030;21.952;2022-12-29T14:33:41;80.35;;;39.58;;
57846;SDS011;43675;50.030;21.952;2022-12-29T14:36:20;81.15;;;40.15;;
57846;SDS011;43675;50.030;21.952;2022-12-29T14:38:49;55.05;;;32.17;;
57846;SDS011;43675;50.030;21.952;2022-12-29T14:41:16;66.77;;;37.05;;
57846;SDS011;43675;50.030;21.952;2022-12-29T14:43:54;73.07;;;40.45;;
57846;SDS011;43675;50.030;21.952;2022-12-29T14:46:23;63.45;;;37.20;;
57846;SDS011;43675;50.030;21.952;2022-12-29T14:48:52;73.92;;;38.92;;
57846;SDS011;43675;50.030;21.952;2022-12-29T14:51:27;79.55;;;40.43;;
57846;SDS011;43675;50.030;21.952;2022-12-29T14:53:55;66.10;;;37.63;;
57846;SDS011;43675;50.030;21.952;2022-12-29T14:56:25;70.70;;;39.40;;
57846;SDS011;43675;50.030;21.952;2022-12-29T14:58:58;45.40;;;30.72;;
57846;SDS011;43675;50.030;21.952;2022-12-29T15:04:17;37.10;;;28.05;;
57846;SDS011;43675;50.030;21.952;2022-12-29T15:06:44;57.75;;;34.55;;
57846;SDS011;43675;50.030;21.952;2022-12-29T15:17:00;38.28;;;29.95;;
57846;SDS011;43675;50.030;21.952;2022-12-29T15:19:28;42.48;;;30.88;;
57846;SDS011;43675;50.030;21.952;2022-12-29T15:21:54;37.28;;;26.97;;
57846;SDS011;43675;50.030;21.952;2022-12-29T15:24:22;45.10;;;31.50;;
57846;SDS011;43675;50.030;21.952;2022-12-29T15:26:50;39.18;;;28.80;;
57846;SDS011;43675;50.030;21.952;2022-12-29T15:29:31;49.60;;;33.48;;
57846;SDS011;43675;50.030;21.952;2022-12-29T15:34:50;36.50;;;29.30;;
57846;SDS011;43675;50.030;21.952;2022-12-29T15:37:26;61.33;;;39.23;;
57846;SDS011;43675;50.030;21.952;2022-12-29T15:39:50;42.17;;;30.82;;
57846;SDS011;43675;50.030;21.952;2022-12-29T15:45:05;62.90;;;34.48;;
57846;SDS011;43675;50.030;21.952;2022-12-29T15:47:33;56.80;;;31.95;;
57846;SDS011;43675;50.030;21.952;2022-12-29T15:52:36;58.00;;;34.58;;
57846;SDS011;43675;50.030;21.952;2022-12-29T15:55:04;58.80;;;32.90;;
57846;SDS011;43675;50.030;21.952;2022-12-29T15:57:41;49.63;;;33.18;;
57846;SDS011;43675;50.030;21.952;2022-12-29T16:00:23;35.98;;;28.05;;
57846;SDS011;43675;50.030;21.952;2022-12-29T16:02:51;55.45;;;37.38;;
57846;SDS011;43675;50.030;21.952;2022-12-29T16:05:19;38.55;;;31.07;;
57846;SDS011;43675;50.030;21.952;2022-12-29T16:07:57;38.92;;;31.48;;
57846;SDS011;43675;50.030;21.952;2022-12-29T16:13:26;38.45;;;28.25;;
57846;SDS011;43675;50.030;21.952;2022-12-29T16:15:31;38.67;;;30.45;;
57846;SDS011;43675;50.030;21.952;2022-12-29T16:17:58;32.15;;;26.90;;
57846;SDS011;43675;50.030;21.952;2022-12-29T16:20:25;54.73;;;36.55;;
57846;SDS011;43675;50.030;21.952;2022-12-29T16:22:54;37.83;;;29.48;;
57846;SDS011;43675;50.030;21.952;2022-12-29T16:25:22;40.80;;;30.65;;
57846;SDS011;43675;50.030;21.952;2022-12-29T16:27:50;34.95;;;29.37;;
57846;SDS011;43675;50.030;21.952;2022-12-29T16:30:26;55.78;;;36.90;;
57846;SDS011;43675;50.030;21.952;2022-12-29T16:32:50;63.60;;;37.15;;
57846;SDS011;43675;50.030;21.952;2022-12-29T16:35:26;68.60;;;45.98;;
57846;SDS011;43675;50.030;21.952;2022-12-29T16:38:07;56.18;;;36.23;;
57846;SDS011;43675;50.030;21.952;2022-12-29T16:40:51;44.88;;;33.20;;
57846;SDS011;43675;50.030;21.952;2022-12-29T16:43:29;41.23;;;32.42;;
57846;SDS011;43675;50.030;21.952;2022-12-29T16:48:30;46.40;;;32.17;;
57846;SDS011;43675;50.030;21.952;2022-12-29T16:51:02;51.88;;;36.03;;
57846;SDS011;43675;50.030;21.952;2022-12-29T16:53:35;55.48;;;38.70;;
57846;SDS011;43675;50.030;21.952;2022-12-29T16:56:02;35.60;;;28.50;;